sensor_id;sensor_type;location;lat;lon;timestamp;P1;durP1;ratioP1;P2;durP2;ratioP2
4434;SDS011;46552;52.150;8.428;2023-05-07T00:00:07;32.57;;;20.97;;
4434;SDS011;46552;52.150;8.428;2023-05-07T00:02:34;33.90;;;21.97;;
4434;SDS011;46552;52.150;8.428;2023-05-07T00:05:02;35.27;;;22.30;;
4434;SDS011;46552;52.150;8.428;2023-05-07T00:07:31;32.53;;;21.97;;
4434;SDS011;46552;52.150;8.428;2023-05-07T00:09:58;35.00;;;22.87;;
4434;SDS011;46552;52.150;8.428;2023-05-07T00:12:26;32.13;;;21.60;;
4434;SDS011;46552;52.150;8.428;2023-05-07T00:14:55;34.87;;;23.47;;
4434;SDS011;46552;52.150;8.428;2023-05-07T00:17:22;36.03;;;22.13;;
4434;SDS011;46552;52.150;8.428;2023-05-07T00:19:49;34.20;;;23.03;;
4434;SDS011;46552;52.150;8.428;2023-05-07T00:22:18;35.33;;;23.07;;
4434;SDS011;46552;52.150;8.428;2023-05-07T00:24:47;34.53;;;21.57;;
4434;SDS011;46552;52.150;8.428;2023-05-07T00:27:15;32.77;;;21.23;;
4434;SDS011;46552;52.150;8.428;2023-05-07T00:29:42;33.07;;;21.70;;
4434;SDS011;46552;52.150;8.428;2023-05-07T00:32:09;33.77;;;21.97;;
4434;SDS011;46552;52.150;8.428;2023-05-07T00:34:36;35.77;;;21.80;;
4434;SDS011;46552;52.150;8.428;2023-05-07T00:37:04;36.20;;;22.63;;
4434;SDS011;46552;52.150;8.428;2023-05-07T00:39:32;39.03;;;23.63;;
4434;SDS011;46552;52.150;8.428;2023-05-07T00:42:01;32.00;;;21.83;;
4434;SDS011;46552;52.150;8.428;2023-05-07T00:44:29;34.13;;;22.10;;
4434;SDS011;46552;52.150;8.428;2023-05-07T00:46:57;36.07;;;21.97;;
4434;SDS011;46552;52.150;8.428;2023-05-07T00:49:25;31.43;;;20.73;;
4434;SDS011;46552;52.150;8.428;2023-05-07T00:52:02;37.67;;;21.60;;
4434;SDS011;46552;52.150;8.428;2023-05-07T00:54:29;36.03;;;22.60;;
4434;SDS011;46552;52.150;8.428;2023-05-07T00:56:57;41.37;;;23.97;;
4434;SDS011;46552;52.150;8.428;2023-05-07T00:59:26;34.80;;;21.77;;
4434;SDS011;46552;52.150;8.428;2023-05-07T01:01:54;35.07;;;21.87;;
4434;SDS011;46552;52.150;8.428;2023-05-07T01:04:21;36.20;;;22.77;;
4434;SDS011;46552;52.150;8.428;2023-05-07T01:06:49;36.23;;;22.10;;
4434;SDS011;46552;52.150;8.428;2023-05-07T01:09:17;45.57;;;24.83;;
4434;SDS011;46552;52.150;8.428;2023-05-07T01:11:46;33.80;;;22.47;;
4434;SDS011;46552;52.150;8.428;2023-05-07T01:14:14;32.53;;;20.33;;
4434;SDS011;46552;52.150;8.428;2023-05-07T01:16:43;35.97;;;21.53;;
4434;SDS011;46552;52.150;8.428;2023-05-07T01:19:11;39.47;;;22.50;;
4434;SDS011;46552;52.150;8.428;2023-05-07T01:21:41;35.93;;;22.53;;
4434;SDS011;46552;52.150;8.428;2023-05-07T01:24:15;40.50;;;22.03;;
4434;SDS011;46552;52.150;8.428;2023-05-07T01:26:42;35.90;;;22.50;;
4434;SDS011;46552;52.150;8.428;2023-05-07T01:29:10;38.80;;;24.47;;
4434;SDS011;46552;52.150;8.428;2023-05-07T01:31:37;37.90;;;24.10;;
4434;SDS011;46552;52.150;8.428;2023-05-07T01:34:08;39.40;;;23.53;;
4434;SDS011;46552;52.150;8.428;2023-05-07T01:36:38;39.63;;;24.00;;
4434;SDS011;46552;52.150;8.428;2023-05-07T01:39:06;41.33;;;23.60;;
4434;SDS011;46552;52.150;8.428;2023-05-07T01:41:36;36.97;;;22.93;;
4434;SDS011;46552;52.150;8.428;2023-05-07T01:44:04;36.53;;;21.47;;
4434;SDS011;46552;52.150;8.428;2023-05-07T01:46:32;40.30;;;24.20;;
4434;SDS011;46552;52.150;8.428;2023-05-07T01:49:00;35.40;;;21.90;;
4434;SDS011;46552;52.150;8.428;2023-05-07T01:51:28;38.47;;;22.70;;
4434;SDS011;46552;52.150;8.428;2023-05-07T01:53:55;36.73;;;22.20;;
4434;SDS011;46552;52.150;8.428;2023-05-07T01:56:23;37.53;;;23.27;;
4434;SDS011;46552;52.150;8.428;2023-05-07T01:58:53;42.27;;;22.90;;
4434;SDS011;46552;52.150;8.428;2023-05-07T02:01:20;34.60;;;22.00;;
4434;SDS011;46552;52.150;8.428;2023-05-07T02:03:47;46.80;;;23.40;;
4434;SDS011;46552;52.150;8.428;2023-05-07T02:06:14;37.57;;;22.60;;
4434;SDS011;46552;52.150;8.428;2023-05-07T02:08:41;35.60;;;22.90;;
4434;SDS011;46552;52.150;8.428;2023-05-07T02:11:08;36.90;;;22.23;;
4434;SDS011;46552;52.150;8.428;2023-05-07T02:13:36;40.77;;;22.90;;
4434;SDS011;46552;52.150;8.428;2023-05-07T02:16:07;32.30;;;21.30;;
4434;SDS011;46552;52.150;8.428;2023-05-07T02:18:34;34.97;;;23.00;;
4434;SDS011;46552;52.150;8.428;2023-05-07T02:21:02;41.00;;;24.10;;
4434;SDS011;46552;52.150;8.428;2023-05-07T02:23:29;37.20;;;22.13;;
4434;SDS011;46552;52.150;8.428;2023-05-07T02:25:56;45.10;;;24.37;;
4434;SDS011;46552;52.150;8.428;2023-05-07T02:28:23;36.17;;;22.40;;
4434;SDS011;46552;52.150;8.428;2023-05-07T02:30:51;34.80;;;22.53;;
4434;SDS011;46552;52.150;8.428;2023-05-07T02:33:22;37.67;;;23.07;;
4434;SDS011;46552;52.150;8.428;2023-05-07T02:35:49;37.47;;;23.27;;
4434;SDS011;46552;52.150;8.428;2023-05-07T02:38:17;36.50;;;24.23;;
4434;SDS011;46552;52.150;8.428;2023-05-07T02:40:45;38.57;;;22.90;;
4434;SDS011;46552;52.150;8.428;2023-05-07T02:43:12;36.57;;;22.87;;
4434;SDS011;46552;52.150;8.428;2023-05-07T02:45:39;38.13;;;21.77;;
4434;SDS011;46552;52.150;8.428;2023-05-07T02:48:08;40.60;;;24.20;;
4434;SDS011;46552;52.150;8.428;2023-05-07T02:50:37;37.03;;;23.77;;
4434;SDS011;46552;52.150;8.428;2023-05-07T02:53:04;39.73;;;22.33;;
4434;SDS011;46552;52.150;8.428;2023-05-07T02:55:31;43.03;;;24.33;;
4434;SDS011;46552;52.150;8.428;2023-05-07T02:57:58;35.30;;;22.13;;
4434;SDS011;46552;52.150;8.428;2023-05-07T03:00:25;40.07;;;24.87;;
4434;SDS011;46552;52.150;8.428;2023-05-07T03:02:52;39.47;;;23.20;;
4434;SDS011;46552;52.150;8.428;2023-05-07T03:05:19;35.33;;;22.70;;
4434;SDS011;46552;52.150;8.428;2023-05-07T03:07:49;45.20;;;23.27;;
4434;SDS011;46552;52.150;8.428;2023-05-07T03:10:16;39.47;;;22.90;;
4434;SDS011;46552;52.150;8.428;2023-05-07T03:12:44;36.57;;;23.87;;
4434;SDS011;46552;52.150;8.428;2023-05-07T03:15:10;44.00;;;25.47;;
4434;SDS011;46552;52.150;8.428;2023-05-07T03:17:40;37.50;;;24.33;;
4434;SDS011;46552;52.150;8.428;2023-05-07T03:20:07;37.67;;;23.50;;
4434;SDS011;46552;52.150;8.428;2023-05-07T03:22:36;41.17;;;24.20;;
4434;SDS011;46552;52.150;8.428;2023-05-07T03:25:05;38.37;;;24.17;;
4434;SDS011;46552;52.150;8.428;2023-05-07T03:27:33;42.93;;;24.67;;
4434;SDS011;46552;52.150;8.428;2023-05-07T03:30:00;41.60;;;25.57;;
4434;SDS011;46552;52.150;8.428;2023-05-07T03:32:28;39.80;;;24.93;;
4434;SDS011;46552;52.150;8.428;2023-05-07T03:34:55;36.80;;;23.23;;
4434;SDS011;46552;52.150;8.428;2023-05-07T03:37:22;40.00;;;26.07;;
4434;SDS011;46552;52.150;8.428;2023-05-07T03:39:49;40.10;;;25.67;;
4434;SDS011;46552;52.150;8.428;2023-05-07T03:42:18;42.83;;;26.17;;
4434;SDS011;46552;52.150;8.428;2023-05-07T03:44:45;38.00;;;25.00;;
4434;SDS011;46552;52.150;8.428;2023-05-07T03:47:13;39.73;;;27.20;;
4434;SDS011;46552;52.150;8.428;2023-05-07T03:49:41;41.50;;;26.13;;
4434;SDS011;46552;52.150;8.428;2023-05-07T03:52:08;51.90;;;27.27;;
4434;SDS011;46552;52.150;8.428;2023-05-07T03:54:36;39.87;;;25.40;;
4434;SDS011;46552;52.150;8.428;2023-05-07T03:57:03;42.77;;;24.50;;
4434;SDS011;46552;52.150;8.428;2023-05-07T03:59:32;46.47;;;25.97;;
4434;SDS011;46552;52.150;8.428;2023-05-07T04:01:59;45.73;;;27.67;;
4434;SDS011;46552;52.150;8.428;2023-05-07T04:04:29;48.23;;;25.23;;
4434;SDS011;46552;52.150;8.428;2023-05-07T04:06:57;42.53;;;26.27;;
4434;SDS011;46552;52.150;8.428;2023-05-07T04:09:25;48.10;;;26.60;;
4434;SDS011;46552;52.150;8.428;2023-05-07T04:11:53;47.07;;;28.40;;
4434;SDS011;46552;52.150;8.428;2023-05-07T04:14:20;41.07;;;24.87;;
4434;SDS011;46552;52.150;8.428;2023-05-07T04:16:50;45.10;;;26.90;;
4434;SDS011;46552;52.150;8.428;2023-05-07T04:19:17;43.30;;;27.80;;
4434;SDS011;46552;52.150;8.428;2023-05-07T04:21:44;45.90;;;28.37;;
4434;SDS011;46552;52.150;8.428;2023-05-07T04:24:11;50.33;;;28.77;;
4434;SDS011;46552;52.150;8.428;2023-05-07T04:26:39;49.43;;;28.67;;
4434;SDS011;46552;52.150;8.428;2023-05-07T04:29:06;45.50;;;29.07;;
4434;SDS011;46552;52.150;8.428;2023-05-07T04:31:33;49.03;;;27.90;;
4434;SDS011;46552;52.150;8.428;2023-05-07T04:34:02;49.13;;;28.33;;
4434;SDS011;46552;52.150;8.428;2023-05-07T04:36:29;50.70;;;27.80;;
4434;SDS011;46552;52.150;8.428;2023-05-07T04:38:58;46.13;;;28.97;;
4434;SDS011;46552;52.150;8.428;2023-05-07T04:41:25;46.03;;;29.33;;
4434;SDS011;46552;52.150;8.428;2023-05-07T04:43:52;53.03;;;29.47;;
4434;SDS011;46552;52.150;8.428;2023-05-07T04:46:20;54.90;;;29.03;;
4434;SDS011;46552;52.150;8.428;2023-05-07T04:48:49;46.37;;;27.60;;
4434;SDS011;46552;52.150;8.428;2023-05-07T04:51:17;47.27;;;27.10;;
4434;SDS011;46552;52.150;8.428;2023-05-07T04:53:46;48.53;;;28.00;;
4434;SDS011;46552;52.150;8.428;2023-05-07T04:56:13;49.23;;;28.83;;
4434;SDS011;46552;52.150;8.428;2023-05-07T04:58:41;58.00;;;30.17;;
4434;SDS011;46552;52.150;8.428;2023-05-07T05:01:08;48.77;;;29.93;;
4434;SDS011;46552;52.150;8.428;2023-05-07T05:03:35;49.40;;;28.10;;
4434;SDS011;46552;52.150;8.428;2023-05-07T05:06:04;47.57;;;27.30;;
4434;SDS011;46552;52.150;8.428;2023-05-07T05:08:33;52.70;;;28.47;;
4434;SDS011;46552;52.150;8.428;2023-05-07T05:11:00;45.47;;;27.23;;
4434;SDS011;46552;52.150;8.428;2023-05-07T05:13:27;50.50;;;31.10;;
4434;SDS011;46552;52.150;8.428;2023-05-07T05:15:55;55.63;;;27.53;;
4434;SDS011;46552;52.150;8.428;2023-05-07T05:18:22;53.00;;;30.20;;
4434;SDS011;46552;52.150;8.428;2023-05-07T05:20:49;48.97;;;28.57;;
4434;SDS011;46552;52.150;8.428;2023-05-07T05:23:18;54.10;;;29.80;;
4434;SDS011;46552;52.150;8.428;2023-05-07T05:25:46;45.07;;;26.80;;
4434;SDS011;46552;52.150;8.428;2023-05-07T05:28:13;44.30;;;27.30;;
4434;SDS011;46552;52.150;8.428;2023-05-07T05:30:40;56.30;;;29.13;;
4434;SDS011;46552;52.150;8.428;2023-05-07T05:33:08;55.03;;;29.33;;
4434;SDS011;46552;52.150;8.428;2023-05-07T05:35:35;49.83;;;29.03;;
4434;SDS011;46552;52.150;8.428;2023-05-07T05:38:02;48.13;;;27.17;;
4434;SDS011;46552;52.150;8.428;2023-05-07T05:40:30;48.57;;;26.57;;
4434;SDS011;46552;52.150;8.428;2023-05-07T05:42:58;52.03;;;28.70;;
4434;SDS011;46552;52.150;8.428;2023-05-07T05:45:26;49.03;;;27.73;;
4434;SDS011;46552;52.150;8.428;2023-05-07T05:47:53;52.73;;;27.37;;
4434;SDS011;46552;52.150;8.428;2023-05-07T05:50:22;49.40;;;26.30;;
4434;SDS011;46552;52.150;8.428;2023-05-07T05:52:50;42.83;;;25.73;;
4434;SDS011;46552;52.150;8.428;2023-05-07T05:55:17;48.67;;;28.77;;
4434;SDS011;46552;52.150;8.428;2023-05-07T05:57:44;45.40;;;27.27;;
4434;SDS011;46552;52.150;8.428;2023-05-07T06:00:16;49.60;;;27.20;;
4434;SDS011;46552;52.150;8.428;2023-05-07T06:02:43;42.60;;;25.80;;
4434;SDS011;46552;52.150;8.428;2023-05-07T06:05:11;54.73;;;27.30;;
4434;SDS011;46552;52.150;8.428;2023-05-07T06:07:41;44.03;;;26.90;;
4434;SDS011;46552;52.150;8.428;2023-05-07T06:10:08;45.90;;;26.20;;
4434;SDS011;46552;52.150;8.428;2023-05-07T06:12:35;51.60;;;29.00;;
4434;SDS011;46552;52.150;8.428;2023-05-07T06:15:03;45.63;;;26.70;;
4434;SDS011;46552;52.150;8.428;2023-05-07T06:17:32;44.93;;;27.70;;
4434;SDS011;46552;52.150;8.428;2023-05-07T06:20:00;52.77;;;27.03;;
4434;SDS011;46552;52.150;8.428;2023-05-07T06:22:27;57.03;;;27.00;;
4434;SDS011;46552;52.150;8.428;2023-05-07T06:24:55;51.37;;;26.60;;
4434;SDS011;46552;52.150;8.428;2023-05-07T06:27:22;48.63;;;26.67;;
4434;SDS011;46552;52.150;8.428;2023-05-07T06:29:50;44.90;;;25.80;;
4434;SDS011;46552;52.150;8.428;2023-05-07T06:32:17;41.83;;;26.27;;
4434;SDS011;46552;52.150;8.428;2023-05-07T06:34:47;46.43;;;25.47;;
4434;SDS011;46552;52.150;8.428;2023-05-07T06:37:14;44.50;;;25.40;;
4434;SDS011;46552;52.150;8.428;2023-05-07T06:39:42;42.10;;;24.33;;
4434;SDS011;46552;52.150;8.428;2023-05-07T06:42:09;46.10;;;25.10;;
4434;SDS011;46552;52.150;8.428;2023-05-07T06:44:36;44.27;;;23.80;;
4434;SDS011;46552;52.150;8.428;2023-05-07T06:47:04;44.73;;;24.20;;
4434;SDS011;46552;52.150;8.428;2023-05-07T06:49:31;41.57;;;24.73;;
4434;SDS011;46552;52.150;8.428;2023-05-07T06:52:00;41.37;;;26.63;;
4434;SDS011;46552;52.150;8.428;2023-05-07T06:54:27;38.97;;;23.70;;
4434;SDS011;46552;52.150;8.428;2023-05-07T06:56:55;38.17;;;23.07;;
4434;SDS011;46552;52.150;8.428;2023-05-07T06:59:23;45.70;;;25.90;;
4434;SDS011;46552;52.150;8.428;2023-05-07T07:01:50;44.43;;;23.60;;
4434;SDS011;46552;52.150;8.428;2023-05-07T07:04:18;40.13;;;23.20;;
4434;SDS011;46552;52.150;8.428;2023-05-07T07:06:47;33.07;;;20.90;;
4434;SDS011;46552;52.150;8.428;2023-05-07T07:09:16;34.60;;;22.37;;
4434;SDS011;46552;52.150;8.428;2023-05-07T07:11:43;47.70;;;25.50;;
4434;SDS011;46552;52.150;8.428;2023-05-07T07:14:10;37.50;;;23.53;;
4434;SDS011;46552;52.150;8.428;2023-05-07T07:16:38;34.77;;;22.13;;
4434;SDS011;46552;52.150;8.428;2023-05-07T07:19:05;44.37;;;24.00;;
4434;SDS011;46552;52.150;8.428;2023-05-07T07:21:32;51.17;;;22.60;;
4434;SDS011;46552;52.150;8.428;2023-05-07T07:23:59;39.50;;;21.93;;
4434;SDS011;46552;52.150;8.428;2023-05-07T07:26:29;39.10;;;23.20;;
4434;SDS011;46552;52.150;8.428;2023-05-07T07:28:56;39.23;;;22.20;;
4434;SDS011;46552;52.150;8.428;2023-05-07T07:31:23;37.63;;;21.93;;
4434;SDS011;46552;52.150;8.428;2023-05-07T07:33:50;33.90;;;20.20;;
4434;SDS011;46552;52.150;8.428;2023-05-07T07:36:17;34.70;;;20.73;;
4434;SDS011;46552;52.150;8.428;2023-05-07T07:38:44;35.30;;;20.00;;
4434;SDS011;46552;52.150;8.428;2023-05-07T07:41:13;34.17;;;19.53;;
4434;SDS011;46552;52.150;8.428;2023-05-07T07:43:41;29.73;;;18.70;;
4434;SDS011;46552;52.150;8.428;2023-05-07T07:46:08;29.73;;;16.97;;
4434;SDS011;46552;52.150;8.428;2023-05-07T07:48:35;28.60;;;17.63;;
4434;SDS011;46552;52.150;8.428;2023-05-07T07:51:03;24.10;;;16.70;;
4434;SDS011;46552;52.150;8.428;2023-05-07T07:53:30;29.53;;;16.83;;
4434;SDS011;46552;52.150;8.428;2023-05-07T07:55:58;31.00;;;17.03;;
4434;SDS011;46552;52.150;8.428;2023-05-07T07:58:25;29.80;;;16.17;;
4434;SDS011;46552;52.150;8.428;2023-05-07T08:00:54;24.67;;;16.40;;
4434;SDS011;46552;52.150;8.428;2023-05-07T08:03:21;27.77;;;16.50;;
4434;SDS011;46552;52.150;8.428;2023-05-07T08:05:49;27.67;;;16.80;;
4434;SDS011;46552;52.150;8.428;2023-05-07T08:08:16;28.37;;;15.23;;
4434;SDS011;46552;52.150;8.428;2023-05-07T08:10:43;26.90;;;16.33;;
4434;SDS011;46552;52.150;8.428;2023-05-07T08:13:10;24.57;;;13.77;;
4434;SDS011;46552;52.150;8.428;2023-05-07T08:15:38;28.70;;;14.30;;
4434;SDS011;46552;52.150;8.428;2023-05-07T08:18:07;28.57;;;14.77;;
4434;SDS011;46552;52.150;8.428;2023-05-07T08:20:34;23.57;;;13.50;;
4434;SDS011;46552;52.150;8.428;2023-05-07T08:23:04;24.37;;;14.87;;
4434;SDS011;46552;52.150;8.428;2023-05-07T08:25:32;25.47;;;15.87;;
4434;SDS011;46552;52.150;8.428;2023-05-07T08:27:59;22.13;;;13.07;;
4434;SDS011;46552;52.150;8.428;2023-05-07T08:30:28;22.80;;;15.33;;
4434;SDS011;46552;52.150;8.428;2023-05-07T08:32:55;25.83;;;15.27;;
4434;SDS011;46552;52.150;8.428;2023-05-07T08:35:23;21.50;;;12.20;;
4434;SDS011;46552;52.150;8.428;2023-05-07T08:37:52;19.63;;;13.37;;
4434;SDS011;46552;52.150;8.428;2023-05-07T08:40:19;19.90;;;14.00;;
4434;SDS011;46552;52.150;8.428;2023-05-07T08:42:49;18.57;;;12.60;;
4434;SDS011;46552;52.150;8.428;2023-05-07T08:45:17;23.27;;;15.10;;
4434;SDS011;46552;52.150;8.428;2023-05-07T08:47:46;17.00;;;11.93;;
4434;SDS011;46552;52.150;8.428;2023-05-07T08:50:17;21.77;;;12.27;;
4434;SDS011;46552;52.150;8.428;2023-05-07T08:52:47;23.27;;;13.20;;
4434;SDS011;46552;52.150;8.428;2023-05-07T08:55:14;19.40;;;12.00;;
4434;SDS011;46552;52.150;8.428;2023-05-07T08:57:41;19.73;;;12.30;;
4434;SDS011;46552;52.150;8.428;2023-05-07T09:00:09;24.70;;;13.07;;
4434;SDS011;46552;52.150;8.428;2023-05-07T09:02:38;19.77;;;13.17;;
4434;SDS011;46552;52.150;8.428;2023-05-07T09:05:05;23.33;;;12.50;;
4434;SDS011;46552;52.150;8.428;2023-05-07T09:07:33;16.70;;;11.40;;
4434;SDS011;46552;52.150;8.428;2023-05-07T09:10:02;18.53;;;12.20;;
4434;SDS011;46552;52.150;8.428;2023-05-07T09:12:30;18.50;;;10.47;;
4434;SDS011;46552;52.150;8.428;2023-05-07T09:14:58;14.00;;;9.93;;
4434;SDS011;46552;52.150;8.428;2023-05-07T09:17:26;16.90;;;9.93;;
4434;SDS011;46552;52.150;8.428;2023-05-07T09:19:53;18.37;;;10.73;;
4434;SDS011;46552;52.150;8.428;2023-05-07T09:22:21;16.13;;;10.30;;
4434;SDS011;46552;52.150;8.428;2023-05-07T09:24:48;15.50;;;11.33;;
4434;SDS011;46552;52.150;8.428;2023-05-07T09:27:18;16.33;;;11.10;;
4434;SDS011;46552;52.150;8.428;2023-05-07T09:29:45;15.53;;;10.53;;
4434;SDS011;46552;52.150;8.428;2023-05-07T09:32:12;13.73;;;8.73;;
4434;SDS011;46552;52.150;8.428;2023-05-07T09:34:42;16.53;;;9.20;;
4434;SDS011;46552;52.150;8.428;2023-05-07T09:37:09;16.50;;;9.57;;
4434;SDS011;46552;52.150;8.428;2023-05-07T09:39:39;17.70;;;10.03;;
4434;SDS011;46552;52.150;8.428;2023-05-07T09:42:07;12.80;;;9.13;;
4434;SDS011;46552;52.150;8.428;2023-05-07T09:44:37;14.73;;;9.53;;
4434;SDS011;46552;52.150;8.428;2023-05-07T09:47:06;16.77;;;9.27;;
4434;SDS011;46552;52.150;8.428;2023-05-07T09:49:34;12.93;;;9.07;;
4434;SDS011;46552;52.150;8.428;2023-05-07T09:52:02;17.30;;;9.37;;
4434;SDS011;46552;52.150;8.428;2023-05-07T09:54:34;14.30;;;8.87;;
4434;SDS011;46552;52.150;8.428;2023-05-07T09:57:03;16.40;;;10.70;;
4434;SDS011;46552;52.150;8.428;2023-05-07T09:59:32;20.80;;;9.07;;
4434;SDS011;46552;52.150;8.428;2023-05-07T10:02:01;15.33;;;9.90;;
4434;SDS011;46552;52.150;8.428;2023-05-07T10:04:29;14.47;;;9.30;;
4434;SDS011;46552;52.150;8.428;2023-05-07T10:06:58;15.20;;;10.37;;
4434;SDS011;46552;52.150;8.428;2023-05-07T10:09:27;16.40;;;10.07;;
4434;SDS011;46552;52.150;8.428;2023-05-07T10:11:55;12.13;;;8.60;;
4434;SDS011;46552;52.150;8.428;2023-05-07T10:14:23;12.37;;;9.30;;
4434;SDS011;46552;52.150;8.428;2023-05-07T10:16:51;12.70;;;8.90;;
4434;SDS011;46552;52.150;8.428;2023-05-07T10:19:22;15.40;;;10.43;;
4434;SDS011;46552;52.150;8.428;2023-05-07T10:21:51;12.80;;;9.47;;
4434;SDS011;46552;52.150;8.428;2023-05-07T10:24:25;15.70;;;9.17;;
4434;SDS011;46552;52.150;8.428;2023-05-07T10:26:53;16.17;;;10.33;;
4434;SDS011;46552;52.150;8.428;2023-05-07T10:29:26;14.63;;;9.50;;
4434;SDS011;46552;52.150;8.428;2023-05-07T10:32:04;13.33;;;8.07;;
4434;SDS011;46552;52.150;8.428;2023-05-07T10:34:43;13.10;;;8.50;;
4434;SDS011;46552;52.150;8.428;2023-05-07T10:37:11;14.40;;;8.80;;
4434;SDS011;46552;52.150;8.428;2023-05-07T10:39:39;11.27;;;6.77;;
4434;SDS011;46552;52.150;8.428;2023-05-07T10:42:07;13.47;;;9.80;;
4434;SDS011;46552;52.150;8.428;2023-05-07T10:44:35;15.67;;;8.97;;
4434;SDS011;46552;52.150;8.428;2023-05-07T10:47:06;13.70;;;9.03;;
4434;SDS011;46552;52.150;8.428;2023-05-07T10:49:34;11.87;;;8.10;;
4434;SDS011;46552;52.150;8.428;2023-05-07T10:52:14;19.10;;;8.13;;
4434;SDS011;46552;52.150;8.428;2023-05-07T10:54:44;11.03;;;8.03;;
4434;SDS011;46552;52.150;8.428;2023-05-07T10:57:32;10.67;;;7.10;;
4434;SDS011;46552;52.150;8.428;2023-05-07T11:00:02;10.73;;;7.10;;
4434;SDS011;46552;52.150;8.428;2023-05-07T11:05:32;11.40;;;7.40;;
4434;SDS011;46552;52.150;8.428;2023-05-07T11:08:04;13.83;;;6.67;;
4434;SDS011;46552;52.150;8.428;2023-05-07T11:10:47;12.10;;;7.47;;
4434;SDS011;46552;52.150;8.428;2023-05-07T11:13:40;10.90;;;6.67;;
4434;SDS011;46552;52.150;8.428;2023-05-07T11:16:16;13.83;;;7.43;;
4434;SDS011;46552;52.150;8.428;2023-05-07T11:18:48;11.60;;;7.20;;
4434;SDS011;46552;52.150;8.428;2023-05-07T11:21:31;9.83;;;6.63;;
4434;SDS011;46552;52.150;8.428;2023-05-07T11:24:01;10.27;;;6.97;;
4434;SDS011;46552;52.150;8.428;2023-05-07T11:26:31;7.80;;;5.97;;
4434;SDS011;46552;52.150;8.428;2023-05-07T11:29:10;10.67;;;5.77;;
4434;SDS011;46552;52.150;8.428;2023-05-07T11:31:38;14.10;;;6.40;;
4434;SDS011;46552;52.150;8.428;2023-05-07T11:34:05;11.20;;;6.83;;
4434;SDS011;46552;52.150;8.428;2023-05-07T11:36:33;10.87;;;5.73;;
4434;SDS011;46552;52.150;8.428;2023-05-07T11:39:04;11.40;;;6.90;;
4434;SDS011;46552;52.150;8.428;2023-05-07T11:41:35;8.87;;;5.93;;
4434;SDS011;46552;52.150;8.428;2023-05-07T11:44:02;10.20;;;6.37;;
4434;SDS011;46552;52.150;8.428;2023-05-07T11:46:30;10.07;;;5.63;;
4434;SDS011;46552;52.150;8.428;2023-05-07T11:48:57;8.97;;;5.70;;
4434;SDS011;46552;52.150;8.428;2023-05-07T11:51:24;9.00;;;6.40;;
4434;SDS011;46552;52.150;8.428;2023-05-07T11:53:52;8.33;;;6.20;;
4434;SDS011;46552;52.150;8.428;2023-05-07T11:56:21;7.80;;;5.30;;
4434;SDS011;46552;52.150;8.428;2023-05-07T11:58:48;9.93;;;5.67;;
4434;SDS011;46552;52.150;8.428;2023-05-07T12:01:17;10.20;;;6.40;;
4434;SDS011;46552;52.150;8.428;2023-05-07T12:03:44;10.63;;;5.70;;
4434;SDS011;46552;52.150;8.428;2023-05-07T12:06:12;7.50;;;5.10;;
4434;SDS011;46552;52.150;8.428;2023-05-07T12:08:43;10.03;;;5.90;;
4434;SDS011;46552;52.150;8.428;2023-05-07T12:11:13;6.70;;;3.80;;
4434;SDS011;46552;52.150;8.428;2023-05-07T12:13:45;9.50;;;5.53;;
4434;SDS011;46552;52.150;8.428;2023-05-07T12:16:13;7.53;;;5.80;;
4434;SDS011;46552;52.150;8.428;2023-05-07T12:18:40;9.10;;;4.83;;
4434;SDS011;46552;52.150;8.428;2023-05-07T12:21:08;7.87;;;5.00;;
4434;SDS011;46552;52.150;8.428;2023-05-07T12:23:36;6.90;;;4.83;;
4434;SDS011;46552;52.150;8.428;2023-05-07T12:26:04;6.80;;;4.07;;
4434;SDS011;46552;52.150;8.428;2023-05-07T12:28:35;8.87;;;4.77;;
4434;SDS011;46552;52.150;8.428;2023-05-07T12:31:06;6.77;;;4.40;;
4434;SDS011;46552;52.150;8.428;2023-05-07T12:33:34;7.43;;;4.50;;
4434;SDS011;46552;52.150;8.428;2023-05-07T12:36:06;7.20;;;4.57;;
4434;SDS011;46552;52.150;8.428;2023-05-07T12:38:37;7.10;;;4.60;;
4434;SDS011;46552;52.150;8.428;2023-05-07T12:41:06;8.40;;;4.43;;
4434;SDS011;46552;52.150;8.428;2023-05-07T12:43:33;6.90;;;4.50;;
4434;SDS011;46552;52.150;8.428;2023-05-07T12:46:01;4.70;;;3.07;;
4434;SDS011;46552;52.150;8.428;2023-05-07T12:48:33;6.10;;;3.90;;
4434;SDS011;46552;52.150;8.428;2023-05-07T12:51:02;6.37;;;4.37;;
4434;SDS011;46552;52.150;8.428;2023-05-07T12:53:31;8.63;;;5.60;;
4434;SDS011;46552;52.150;8.428;2023-05-07T12:55:59;9.97;;;7.30;;
4434;SDS011;46552;52.150;8.428;2023-05-07T12:58:26;11.43;;;7.00;;
4434;SDS011;46552;52.150;8.428;2023-05-07T13:00:55;8.77;;;6.47;;
4434;SDS011;46552;52.150;8.428;2023-05-07T13:03:26;8.83;;;7.17;;
4434;SDS011;46552;52.150;8.428;2023-05-07T13:05:56;15.40;;;7.27;;
4434;SDS011;46552;52.150;8.428;2023-05-07T13:08:28;8.50;;;6.47;;
4434;SDS011;46552;52.150;8.428;2023-05-07T13:10:57;9.27;;;6.00;;
4434;SDS011;46552;52.150;8.428;2023-05-07T13:13:28;9.00;;;6.60;;
4434;SDS011;46552;52.150;8.428;2023-05-07T13:15:56;10.77;;;5.87;;
4434;SDS011;46552;52.150;8.428;2023-05-07T13:18:24;10.70;;;6.47;;
4434;SDS011;46552;52.150;8.428;2023-05-07T13:20:51;6.20;;;4.80;;
4434;SDS011;46552;52.150;8.428;2023-05-07T13:23:20;6.57;;;5.37;;
4434;SDS011;46552;52.150;8.428;2023-05-07T13:25:48;11.50;;;6.00;;
4434;SDS011;46552;52.150;8.428;2023-05-07T13:28:15;9.43;;;5.50;;
4434;SDS011;46552;52.150;8.428;2023-05-07T13:30:43;7.00;;;5.30;;
4434;SDS011;46552;52.150;8.428;2023-05-07T13:33:10;7.13;;;5.43;;
4434;SDS011;46552;52.150;8.428;2023-05-07T13:35:38;11.13;;;4.73;;
4434;SDS011;46552;52.150;8.428;2023-05-07T13:38:05;8.00;;;6.00;;
4434;SDS011;46552;52.150;8.428;2023-05-07T13:40:34;8.23;;;5.40;;
4434;SDS011;46552;52.150;8.428;2023-05-07T13:43:02;8.80;;;5.93;;
4434;SDS011;46552;52.150;8.428;2023-05-07T13:45:29;7.47;;;5.17;;
4434;SDS011;46552;52.150;8.428;2023-05-07T13:47:56;7.10;;;5.17;;
4434;SDS011;46552;52.150;8.428;2023-05-07T13:50:23;7.37;;;4.53;;
4434;SDS011;46552;52.150;8.428;2023-05-07T13:52:52;7.00;;;4.70;;
4434;SDS011;46552;52.150;8.428;2023-05-07T13:55:19;7.67;;;5.33;;
4434;SDS011;46552;52.150;8.428;2023-05-07T13:57:54;8.53;;;5.20;;
4434;SDS011;46552;52.150;8.428;2023-05-07T14:00:22;7.53;;;5.10;;
4434;SDS011;46552;52.150;8.428;2023-05-07T14:02:50;8.47;;;5.47;;
4434;SDS011;46552;52.150;8.428;2023-05-07T14:05:17;8.20;;;5.83;;
4434;SDS011;46552;52.150;8.428;2023-05-07T14:07:44;9.33;;;6.00;;
4434;SDS011;46552;52.150;8.428;2023-05-07T14:10:12;7.87;;;5.70;;
4434;SDS011;46552;52.150;8.428;2023-05-07T14:12:40;9.43;;;4.97;;
4434;SDS011;46552;52.150;8.428;2023-05-07T14:15:10;8.83;;;4.57;;
4434;SDS011;46552;52.150;8.428;2023-05-07T14:17:37;7.70;;;5.60;;
4434;SDS011;46552;52.150;8.428;2023-05-07T14:20:05;8.27;;;4.97;;
4434;SDS011;46552;52.150;8.428;2023-05-07T14:22:33;9.20;;;5.20;;
4434;SDS011;46552;52.150;8.428;2023-05-07T14:25:00;9.70;;;4.97;;
4434;SDS011;46552;52.150;8.428;2023-05-07T14:27:27;6.93;;;4.90;;
4434;SDS011;46552;52.150;8.428;2023-05-07T14:29:55;7.77;;;5.37;;
4434;SDS011;46552;52.150;8.428;2023-05-07T14:32:23;7.90;;;5.70;;
4434;SDS011;46552;52.150;8.428;2023-05-07T14:34:51;5.93;;;4.47;;
4434;SDS011;46552;52.150;8.428;2023-05-07T14:37:18;6.30;;;4.47;;
4434;SDS011;46552;52.150;8.428;2023-05-07T14:39:45;6.87;;;5.20;;
4434;SDS011;46552;52.150;8.428;2023-05-07T14:42:13;6.53;;;4.87;;
4434;SDS011;46552;52.150;8.428;2023-05-07T14:44:40;7.77;;;5.03;;
4434;SDS011;46552;52.150;8.428;2023-05-07T14:47:07;7.40;;;4.80;;
4434;SDS011;46552;52.150;8.428;2023-05-07T14:49:36;8.13;;;4.80;;